createdAt,value
2022-07-26T00:00:59.680Z,3.50
2022-07-26T00:03:27.689Z,3.00
2022-07-26T00:05:55.518Z,3.33
2022-07-26T00:08:23.473Z,3.13
2022-07-26T00:10:52.163Z,3.33
2022-07-26T00:13:22.217Z,3.03
2022-07-26T00:15:52.041Z,3.60
2022-07-26T00:18:21.069Z,3.00
2022-07-26T00:20:49.119Z,3.20
2022-07-26T00:23:19.367Z,3.10
2022-07-26T00:25:47.633Z,3.07
2022-07-26T00:28:15.903Z,2.97
2022-07-26T00:30:43.981Z,2.90
2022-07-26T00:33:13.682Z,2.80
2022-07-26T00:35:41.822Z,2.60
2022-07-26T00:38:09.701Z,3.20
2022-07-26T00:40:38.300Z,3.10
2022-07-26T00:43:07.219Z,3.10
2022-07-26T00:45:35.955Z,2.60
2022-07-26T00:48:05.306Z,2.87
2022-07-26T00:50:35.341Z,2.70
2022-07-26T00:53:03.420Z,3.03
2022-07-26T00:55:31.407Z,2.60
2022-07-26T00:58:01.130Z,2.97
2022-07-26T01:00:30.126Z,3.20
2022-07-26T01:03:00.383Z,3.03
2022-07-26T01:05:28.742Z,2.83
2022-07-26T01:07:58.454Z,2.80
2022-07-26T01:10:26.521Z,2.87
2022-07-26T01:12:54.376Z,2.97
2022-07-26T01:15:23.265Z,2.70
2022-07-26T01:17:51.122Z,2.83
2022-07-26T01:20:18.994Z,3.33
2022-07-26T01:22:48.624Z,3.00
2022-07-26T01:25:16.473Z,3.00
2022-07-26T01:27:44.592Z,2.83
2022-07-26T01:30:13.804Z,2.80
2022-07-26T01:32:41.601Z,3.13
2022-07-26T01:35:10.905Z,2.97
2022-07-26T01:41:40.107Z,3.00
2022-07-26T01:44:08.988Z,3.10
2022-07-26T01:46:37.708Z,2.90
2022-07-26T01:49:07.307Z,2.60
2022-07-26T01:51:35.962Z,2.87
2022-07-26T01:54:08.281Z,2.73
2022-07-26T01:56:36.669Z,2.50
2022-07-26T01:59:06.569Z,2.60
2022-07-26T02:01:38.698Z,2.33
2022-07-26T02:04:30.021Z,2.37
2022-07-26T02:06:58.963Z,2.63
2022-07-26T02:09:29.931Z,2.40
2022-07-26T02:12:07.942Z,2.50
2022-07-26T02:14:37.591Z,2.20
2022-07-26T02:17:05.904Z,2.30
2022-07-26T02:19:34.172Z,2.30
2022-07-26T02:22:02.640Z,2.40
2022-07-26T02:24:30.944Z,2.40
2022-07-26T02:27:00.808Z,2.27
2022-07-26T02:29:29.772Z,2.40
2022-07-26T02:31:59.474Z,1.83
2022-07-26T02:34:32.214Z,2.30
2022-07-26T02:37:02.806Z,2.33
2022-07-26T02:39:31.601Z,2.03
2022-07-26T02:42:01.580Z,2.30
2022-07-26T02:44:30.563Z,2.30
2022-07-26T02:47:00.196Z,2.17
2022-07-26T02:49:28.355Z,1.90
2022-07-26T02:51:56.625Z,2.10
2022-07-26T02:54:24.788Z,2.13
2022-07-26T02:56:52.967Z,2.40
2022-07-26T02:59:21.032Z,2.33
2022-07-26T03:01:49.221Z,1.90
2022-07-26T03:04:18.614Z,2.30
2022-07-26T03:06:46.404Z,2.40
2022-07-26T03:09:14.377Z,2.30
2022-07-26T03:11:42.805Z,2.20
2022-07-26T03:14:10.912Z,2.20
2022-07-26T03:16:38.997Z,2.20
2022-07-26T03:19:06.932Z,2.17
2022-07-26T03:21:36.184Z,2.43
2022-07-26T03:24:04.617Z,2.10
2022-07-26T03:26:32.605Z,2.00
2022-07-26T03:29:00.403Z,2.37
2022-07-26T03:31:28.323Z,1.90
2022-07-26T03:34:01.283Z,2.33
2022-07-26T03:36:30.970Z,2.30
2022-07-26T03:39:00.402Z,2.20
2022-07-26T03:41:28.262Z,2.30
2022-07-26T03:43:56.080Z,2.10
2022-07-26T03:46:23.969Z,1.90
2022-07-26T03:48:51.844Z,2.13
2022-07-26T03:51:19.729Z,2.47
2022-07-26T03:53:47.666Z,2.10
2022-07-26T03:56:32.013Z,2.30
2022-07-26T03:59:02.525Z,1.90
2022-07-26T04:05:48.595Z,2.17
2022-07-26T04:08:17.109Z,2.00
2022-07-26T04:10:46.951Z,2.40
2022-07-26T04:13:16.120Z,2.00
2022-07-26T04:15:44.270Z,2.00
2022-07-26T04:18:14.025Z,1.77
2022-07-26T04:20:41.899Z,1.97
2022-07-26T04:23:11.285Z,2.23
2022-07-26T04:25:41.684Z,2.30
2022-07-26T04:28:09.817Z,2.33
2022-07-26T04:30:39.834Z,2.07
2022-07-26T04:33:08.198Z,2.10
2022-07-26T04:35:36.364Z,2.13
2022-07-26T04:38:04.672Z,2.13
2022-07-26T04:40:34.253Z,2.00
2022-07-26T04:43:10.249Z,2.00
2022-07-26T04:45:45.656Z,2.17
2022-07-26T04:48:14.077Z,2.27
2022-07-26T04:50:42.342Z,2.10
2022-07-26T04:53:11.055Z,2.40
2022-07-26T04:55:39.080Z,2.10
2022-07-26T04:58:07.033Z,2.17
2022-07-26T05:00:51.087Z,2.03
2022-07-26T05:03:24.999Z,2.07
2022-07-26T05:05:53.134Z,2.10
2022-07-26T05:08:21.021Z,2.67
2022-07-26T05:10:54.920Z,2.43
2022-07-26T05:13:29.493Z,2.27
2022-07-26T05:15:58.105Z,2.20
2022-07-26T05:18:29.365Z,2.17
2022-07-26T05:20:59.330Z,1.90
2022-07-26T05:23:27.136Z,2.17
2022-07-26T05:25:55.324Z,2.23
2022-07-26T05:28:23.160Z,2.00
2022-07-26T05:30:51.361Z,2.03
2022-07-26T05:33:19.516Z,2.00
2022-07-26T05:35:48.678Z,2.00
2022-07-26T05:38:16.496Z,2.20
2022-07-26T05:40:50.064Z,2.20
2022-07-26T05:43:18.586Z,2.33
2022-07-26T05:45:46.712Z,2.13
2022-07-26T05:48:14.572Z,2.37
2022-07-26T05:50:42.404Z,1.90
2022-07-26T05:53:11.603Z,1.80
2022-07-26T05:55:39.417Z,2.07
2022-07-26T05:58:07.595Z,1.83
2022-07-26T06:00:35.860Z,1.97
2022-07-26T06:03:21.801Z,1.90
2022-07-26T06:05:49.978Z,2.00
2022-07-26T06:08:19.648Z,1.70
2022-07-26T06:10:47.813Z,1.97
2022-07-26T06:13:16.203Z,2.00
2022-07-26T06:15:44.743Z,1.90
2022-07-26T06:18:13.081Z,1.83
2022-07-26T06:20:41.622Z,2.37
2022-07-26T06:23:09.843Z,2.10
2022-07-26T06:25:39.234Z,2.40
2022-07-26T06:28:09.753Z,2.20
2022-07-26T06:30:38.925Z,2.80
2022-07-26T06:33:07.488Z,2.37
2022-07-26T06:35:35.957Z,2.07
2022-07-26T06:38:05.713Z,2.00
2022-07-26T06:40:34.105Z,2.17
2022-07-26T06:43:04.656Z,1.87
2022-07-26T06:45:33.864Z,2.13
2022-07-26T06:48:01.874Z,2.13
2022-07-26T06:54:42.312Z,2.20
2022-07-26T06:57:10.142Z,1.97
2022-07-26T06:59:39.440Z,1.87
2022-07-26T07:02:07.349Z,1.70
2022-07-26T07:04:35.590Z,1.60
2022-07-26T07:07:05.821Z,1.70
2022-07-26T07:09:34.586Z,1.93
2022-07-26T07:12:10.056Z,2.00
2022-07-26T07:14:40.357Z,1.90
2022-07-26T07:17:10.399Z,1.60
2022-07-26T07:19:42.077Z,1.87
2022-07-26T07:22:12.035Z,1.70
2022-07-26T07:24:40.728Z,1.77
2022-07-26T07:27:08.788Z,1.77
2022-07-26T07:29:42.166Z,2.00
2022-07-26T07:32:18.139Z,1.70
2022-07-26T07:34:47.659Z,1.63
2022-07-26T07:37:15.829Z,1.63
2022-07-26T07:39:43.699Z,1.60
2022-07-26T07:42:11.482Z,2.03
2022-07-26T07:44:41.395Z,1.40
2022-07-26T07:47:09.606Z,1.30
2022-07-26T07:49:38.041Z,1.30
2022-07-26T07:52:06.481Z,1.80
2022-07-26T07:54:34.345Z,1.27
2022-07-26T07:57:02.154Z,1.70
2022-07-26T07:59:29.989Z,2.00
2022-07-26T08:01:59.733Z,1.47
2022-07-26T08:04:27.577Z,1.50
2022-07-26T08:06:55.478Z,1.60
2022-07-26T08:09:23.303Z,2.03
2022-07-26T08:11:51.329Z,1.50
2022-07-26T08:14:19.323Z,1.83
2022-07-26T08:16:47.388Z,1.77
2022-07-26T08:19:16.904Z,1.60
2022-07-26T08:21:46.082Z,1.97
2022-07-26T08:24:14.817Z,1.77
2022-07-26T08:26:42.638Z,1.80
2022-07-26T08:33:23.227Z,1.80
2022-07-26T08:35:55.839Z,1.80
2022-07-26T08:38:26.413Z,1.47
2022-07-26T08:40:54.630Z,1.20
2022-07-26T08:43:22.459Z,1.40
2022-07-26T08:45:50.799Z,1.60
2022-07-26T08:48:18.971Z,1.80
2022-07-26T08:50:47.093Z,1.40
2022-07-26T08:53:16.853Z,1.40
2022-07-26T08:56:05.970Z,1.57
2022-07-26T08:58:35.516Z,1.40
2022-07-26T09:01:08.813Z,1.17
2022-07-26T09:03:37.757Z,1.40
2022-07-26T09:06:17.417Z,1.53
2022-07-26T09:08:48.558Z,1.60
2022-07-26T09:11:30.404Z,1.47
2022-07-26T09:13:59.871Z,1.50
2022-07-26T09:16:28.770Z,1.60
2022-07-26T09:18:57.527Z,1.40
2022-07-26T09:21:32.425Z,1.43
2022-07-26T09:24:01.830Z,1.37
2022-07-26T09:26:29.685Z,1.40
2022-07-26T09:29:06.999Z,1.20
2022-07-26T09:31:36.115Z,1.30
2022-07-26T09:34:05.496Z,1.20
2022-07-26T09:36:33.867Z,1.23
2022-07-26T09:39:05.090Z,1.57
2022-07-26T09:41:35.935Z,1.40
2022-07-26T09:44:05.718Z,1.40
2022-07-26T09:46:35.696Z,1.40
2022-07-26T09:49:17.920Z,1.30
2022-07-26T09:51:47.915Z,1.47
2022-07-26T09:54:21.342Z,1.20
2022-07-26T09:56:50.435Z,1.20
2022-07-26T09:59:20.025Z,1.40
2022-07-26T10:01:49.393Z,1.10
2022-07-26T10:04:18.254Z,1.30
2022-07-26T10:06:46.633Z,1.20
2022-07-26T10:09:15.560Z,1.17
2022-07-26T10:11:50.227Z,1.20
2022-07-26T10:14:38.138Z,1.33
2022-07-26T10:17:45.459Z,1.40
2022-07-26T10:20:45.350Z,1.30
2022-07-26T10:23:42.170Z,1.47
2022-07-26T10:26:12.967Z,1.63
2022-07-26T10:28:42.758Z,1.50
2022-07-26T10:31:32.347Z,1.57
2022-07-26T10:34:01.878Z,1.20
2022-07-26T10:36:33.358Z,1.63
2022-07-26T10:39:04.117Z,1.27
2022-07-26T10:41:33.326Z,1.60
2022-07-26T10:44:33.238Z,1.77
2022-07-26T10:47:19.234Z,1.60
2022-07-26T10:49:58.090Z,1.50
2022-07-26T10:52:29.061Z,1.27
2022-07-26T10:55:08.209Z,1.37
2022-07-26T10:57:37.560Z,1.33
2022-07-26T11:00:12.150Z,1.27
2022-07-26T11:02:40.240Z,1.30
2022-07-26T11:05:14.060Z,1.30
2022-07-26T11:07:57.158Z,1.60
2022-07-26T11:14:31.299Z,1.57
2022-07-26T11:17:00.472Z,1.30
2022-07-26T11:23:27.352Z,1.10
2022-07-26T11:26:11.043Z,0.87
2022-07-26T11:28:50.745Z,1.13
2022-07-26T11:31:20.467Z,1.03
2022-07-26T11:38:11.375Z,0.90
2022-07-26T11:49:06.670Z,0.90
2022-07-26T11:51:34.853Z,0.90
2022-07-26T11:58:10.733Z,1.00
2022-07-26T12:04:46.015Z,0.90
2022-07-26T12:07:16.058Z,0.70
2022-07-26T12:09:49.317Z,0.63
2022-07-26T12:12:22.239Z,0.90
2022-07-26T12:14:59.547Z,0.80
2022-07-26T12:17:35.204Z,1.00
2022-07-26T12:20:13.722Z,0.90
2022-07-26T12:23:28.514Z,0.90
2022-07-26T12:25:56.354Z,0.90
2022-07-26T12:36:28.434Z,0.73
2022-07-26T12:38:57.451Z,0.70
2022-07-26T12:41:36.622Z,0.77
2022-07-26T12:44:05.188Z,1.03
2022-07-26T12:46:34.249Z,0.80
2022-07-26T12:49:02.294Z,0.90
2022-07-26T12:51:31.603Z,0.90
2022-07-26T12:53:59.473Z,0.90
2022-07-26T12:56:27.281Z,0.70
2022-07-26T12:59:00.799Z,0.80
2022-07-26T13:01:28.907Z,0.80
2022-07-26T13:03:57.069Z,0.70
2022-07-26T13:06:24.940Z,0.90
2022-07-26T13:13:06.969Z,0.90
2022-07-26T13:15:35.283Z,1.10
2022-07-26T13:18:04.625Z,1.40
2022-07-26T13:20:32.590Z,1.10
2022-07-26T13:23:00.448Z,0.80
2022-07-26T13:25:31.772Z,0.90
2022-07-26T13:28:09.807Z,0.87
2022-07-26T13:30:39.258Z,0.83
2022-07-26T13:33:07.995Z,1.10
2022-07-26T13:35:38.759Z,1.20
2022-07-26T13:38:06.577Z,0.80
2022-07-26T13:40:34.411Z,1.07
2022-07-26T13:47:03.326Z,0.90
2022-07-26T13:53:55.217Z,0.60
2022-07-26T13:56:23.413Z,0.60
2022-07-26T13:58:51.215Z,1.00
2022-07-26T14:05:17.562Z,0.70
2022-07-26T14:15:46.542Z,0.43
2022-07-26T14:18:14.360Z,0.60
2022-07-26T14:20:44.045Z,0.60
2022-07-26T14:23:11.901Z,0.60
2022-07-26T14:25:39.739Z,0.70
2022-07-26T14:28:07.541Z,0.70
2022-07-26T14:30:36.041Z,0.60
2022-07-26T14:33:04.906Z,0.70
2022-07-26T14:35:32.918Z,0.50
2022-07-26T14:38:02.101Z,0.50
2022-07-26T14:40:29.893Z,0.70
2022-07-26T14:42:57.943Z,0.50
2022-07-26T14:45:25.849Z,0.63
2022-07-26T14:47:53.648Z,0.50
2022-07-26T14:50:23.262Z,0.50
2022-07-26T14:52:51.261Z,0.60
2022-07-26T14:55:25.398Z,0.60
2022-07-26T14:57:53.640Z,0.50
2022-07-26T15:00:21.437Z,0.50
2022-07-26T15:10:49.934Z,0.60
2022-07-26T15:13:17.878Z,0.50
2022-07-26T15:15:45.694Z,0.50
2022-07-26T15:18:13.547Z,0.60
2022-07-26T15:20:42.361Z,0.50
2022-07-26T15:23:11.799Z,0.50
2022-07-26T15:25:39.826Z,0.50
2022-07-26T15:28:09.218Z,0.60
2022-07-26T15:30:37.294Z,0.60
2022-07-26T15:33:05.200Z,0.50
2022-07-26T15:35:35.136Z,0.50
2022-07-26T15:38:02.959Z,0.40
2022-07-26T15:40:31.226Z,0.50
2022-07-26T15:42:59.086Z,0.40
2022-07-26T15:45:30.100Z,0.50
2022-07-26T15:48:13.454Z,0.60
2022-07-26T15:50:45.057Z,0.60
2022-07-26T15:53:16.346Z,0.83
2022-07-26T15:55:44.258Z,0.50
2022-07-26T15:58:13.090Z,0.77
2022-07-26T16:00:43.346Z,0.63
2022-07-26T16:03:12.705Z,0.80
2022-07-26T16:05:40.661Z,0.80
2022-07-26T16:08:08.505Z,0.70
2022-07-26T16:10:36.372Z,0.80
2022-07-26T16:13:05.235Z,0.77
2022-07-26T16:15:33.019Z,1.10
2022-07-26T16:18:06.266Z,0.90
2022-07-26T16:20:35.000Z,0.60
2022-07-26T16:23:03.106Z,0.80
2022-07-26T16:25:30.934Z,0.77
2022-07-26T16:27:59.053Z,1.10
2022-07-26T16:30:27.016Z,0.70
2022-07-26T16:32:54.826Z,1.03
2022-07-26T16:35:24.028Z,1.00
2022-07-26T16:37:51.827Z,0.83
2022-07-26T16:40:19.658Z,0.70
2022-07-26T16:42:47.522Z,0.90
2022-07-26T16:45:15.371Z,0.90
2022-07-26T16:47:43.165Z,0.70
2022-07-26T16:50:11.422Z,0.90
2022-07-26T16:52:40.614Z,1.00
2022-07-26T16:55:10.744Z,0.70
2022-07-26T16:57:39.214Z,0.70
2022-07-26T17:00:09.955Z,0.80
2022-07-26T17:02:38.096Z,0.70
2022-07-26T17:05:07.873Z,0.80
2022-07-26T17:07:37.086Z,0.73
2022-07-26T17:10:07.826Z,0.80
2022-07-26T17:12:35.802Z,0.60
2022-07-26T17:15:04.695Z,0.70
2022-07-26T17:17:32.593Z,0.80
2022-07-26T17:20:00.414Z,0.83
2022-07-26T17:22:28.207Z,0.87
2022-07-26T17:24:56.066Z,1.07
2022-07-26T17:27:26.056Z,0.70
2022-07-26T17:29:53.939Z,0.80
2022-07-26T17:32:21.776Z,0.60
2022-07-26T17:34:49.662Z,0.80
2022-07-26T17:37:17.488Z,0.90
2022-07-26T17:39:51.854Z,0.60
2022-07-26T17:42:20.823Z,0.80
2022-07-26T17:44:50.151Z,0.70
2022-07-26T17:47:29.628Z,0.67
2022-07-26T17:52:48.036Z,0.60
2022-07-26T17:55:16.189Z,0.63
2022-07-26T17:57:44.011Z,0.50
2022-07-26T18:00:14.514Z,0.70
2022-07-26T18:02:42.446Z,0.67
2022-07-26T18:05:11.913Z,0.70
2022-07-26T18:07:40.016Z,0.70
2022-07-26T18:10:09.905Z,0.60
2022-07-26T18:12:37.781Z,0.80
2022-07-26T18:15:07.202Z,0.60
2022-07-26T18:17:36.401Z,0.80
2022-07-26T18:20:05.737Z,0.90
2022-07-26T18:22:33.595Z,0.80
2022-07-26T18:25:01.446Z,0.97
2022-07-26T18:27:29.319Z,0.73
2022-07-26T18:29:58.391Z,0.97
2022-07-26T18:32:26.814Z,0.73
2022-07-26T18:34:56.090Z,0.73
2022-07-26T18:37:24.041Z,1.00
2022-07-26T18:39:57.293Z,1.00
2022-07-26T18:42:25.744Z,1.00
2022-07-26T18:44:53.723Z,0.70
2022-07-26T18:47:21.689Z,0.93
2022-07-26T18:49:50.235Z,0.77
2022-07-26T18:52:28.780Z,1.00
2022-07-26T18:55:02.109Z,1.10
2022-07-26T18:57:29.961Z,1.00
2022-07-26T18:59:57.789Z,0.83
2022-07-26T19:02:25.984Z,0.87
2022-07-26T19:04:53.844Z,0.83
2022-07-26T19:07:23.106Z,1.10
2022-07-26T19:09:54.950Z,0.90
2022-07-26T19:12:25.870Z,0.87
2022-07-26T19:14:53.719Z,1.20
2022-07-26T19:17:21.912Z,1.03
2022-07-26T19:19:49.741Z,1.00
2022-07-26T19:22:17.599Z,1.00
2022-07-26T19:24:46.794Z,1.43
2022-07-26T19:27:15.606Z,2.33
2022-07-26T19:29:44.092Z,2.00
2022-07-26T19:32:12.026Z,1.60
2022-07-26T19:34:39.868Z,2.00
2022-07-26T19:37:07.722Z,1.87
2022-07-26T19:39:35.551Z,1.80
2022-07-26T19:42:04.854Z,2.03
2022-07-26T19:44:32.697Z,2.30
2022-07-26T19:47:00.514Z,2.10
2022-07-26T19:49:28.655Z,2.20
2022-07-26T19:51:56.573Z,2.57
2022-07-26T19:54:24.428Z,2.90
2022-07-26T19:56:52.490Z,1.70
2022-07-26T19:59:24.083Z,1.70
2022-07-26T20:01:55.041Z,2.20
2022-07-26T20:04:24.502Z,1.80
2022-07-26T20:06:52.337Z,1.70
2022-07-26T20:09:20.186Z,1.70
2022-07-26T20:11:50.829Z,1.70
2022-07-26T20:14:19.209Z,2.10
2022-07-26T20:16:51.704Z,1.63
2022-07-26T20:19:24.195Z,1.60
2022-07-26T20:21:52.037Z,1.77
2022-07-26T20:24:20.109Z,1.57
2022-07-26T20:26:47.983Z,1.40
2022-07-26T20:29:15.837Z,1.93
2022-07-26T20:31:44.033Z,1.50
2022-07-26T20:34:13.472Z,1.70
2022-07-26T20:36:41.407Z,1.60
2022-07-26T20:39:09.601Z,1.70
2022-07-26T20:41:37.730Z,1.67
2022-07-26T20:44:07.251Z,1.40
2022-07-26T20:46:39.617Z,1.50
2022-07-26T20:49:08.091Z,1.10
2022-07-26T20:51:37.719Z,1.30
2022-07-26T20:54:05.910Z,1.10
2022-07-26T20:56:33.894Z,1.60
2022-07-26T20:59:02.826Z,1.43
2022-07-26T21:01:30.788Z,1.37
2022-07-26T21:03:58.847Z,1.43
2022-07-26T21:06:27.425Z,1.20
2022-07-26T21:08:58.689Z,1.23
2022-07-26T21:11:26.862Z,1.23
2022-07-26T21:13:54.726Z,1.30
2022-07-26T21:16:22.634Z,1.40
2022-07-26T21:18:52.747Z,1.77
2022-07-26T21:21:21.318Z,1.40
2022-07-26T21:23:49.293Z,1.40
2022-07-26T21:26:18.449Z,1.33
2022-07-26T21:28:46.229Z,1.63
2022-07-26T21:31:14.190Z,1.50
2022-07-26T21:33:44.081Z,1.13
2022-07-26T21:36:11.896Z,1.30
2022-07-26T21:38:39.692Z,1.23
2022-07-26T21:41:07.547Z,1.60
2022-07-26T21:43:36.814Z,1.23
2022-07-26T21:46:08.967Z,1.40
2022-07-26T21:48:39.917Z,1.43
2022-07-26T21:51:07.913Z,1.50
2022-07-26T21:53:35.746Z,1.53
2022-07-26T21:56:05.433Z,1.63
2022-07-26T21:58:36.553Z,1.40
2022-07-26T22:01:07.384Z,1.40
2022-07-26T22:03:36.804Z,1.67
2022-07-26T22:06:05.403Z,1.70
2022-07-26T22:08:34.481Z,1.50
2022-07-26T22:11:02.466Z,1.57
2022-07-26T22:13:30.284Z,1.23
2022-07-26T22:15:58.185Z,1.57
2022-07-26T22:18:27.684Z,1.60
2022-07-26T22:20:55.693Z,1.60
2022-07-26T22:23:29.705Z,1.53
2022-07-26T22:25:58.154Z,1.60
2022-07-26T22:28:26.237Z,1.40
2022-07-26T22:30:54.479Z,1.40
2022-07-26T22:33:22.666Z,1.70
2022-07-26T22:35:52.094Z,1.50
2022-07-26T22:38:20.181Z,1.60
2022-07-26T22:40:48.070Z,1.87
2022-07-26T22:43:15.902Z,1.50
2022-07-26T22:45:43.850Z,1.70
2022-07-26T22:48:11.849Z,1.70
2022-07-26T22:50:39.970Z,1.90
2022-07-26T22:53:09.178Z,1.70
2022-07-26T22:55:37.133Z,1.70
2022-07-26T22:58:04.967Z,1.90
2022-07-26T23:00:32.898Z,1.77
2022-07-26T23:03:00.877Z,1.67
2022-07-26T23:05:45.136Z,1.73
2022-07-26T23:11:04.831Z,1.70
2022-07-26T23:13:32.709Z,1.90
2022-07-26T23:16:01.655Z,1.73
2022-07-26T23:18:30.664Z,1.60
2022-07-26T23:20:58.924Z,1.90
2022-07-26T23:23:29.675Z,1.70
2022-07-26T23:25:59.015Z,1.57
2022-07-26T23:28:37.666Z,1.67
2022-07-26T23:31:59.566Z,1.47
2022-07-26T23:34:27.465Z,1.80
2022-07-26T23:36:55.314Z,1.80
2022-07-26T23:39:24.530Z,2.10
2022-07-26T23:41:52.368Z,1.90
2022-07-26T23:44:20.189Z,1.70
2022-07-26T23:46:48.069Z,1.63
2022-07-26T23:49:16.145Z,1.70
2022-07-26T23:51:44.370Z,2.33
2022-07-26T23:54:12.182Z,1.80
2022-07-26T23:56:41.329Z,1.83
2022-07-26T23:59:09.578Z,1.70
